Time;durP1;ratioP1;P1;durP2;ratioP2;P2;SDS_P1;SDS_P2;PMS_P1;PMS_P2;Temp;Humidity;BMP_temperature;BMP_pressure;BME280_temperature;BME280_humidity;BME280_pressure;Samples;Min_cycle;Max_cycle;Signal;HPM_P1;HPM_P2
2024/01/26 00:00:18;;;;;;;0.53;0.53;;;;;;;;;;5014870;28;20180;-86
2024/01/26 00:02:44;;;;;;;0.50;0.50;;;;;;;;;;5015126;28;20283;-87
2024/01/26 00:05:10;;;;;;;0.50;0.50;;;;;;;;;;5013757;28;20219;-88
2024/01/26 00:07:36;;;;;;;0.70;0.70;;;;;;;;;;5012148;28;20215;-87
2024/01/26 00:10:02;;;;;;;0.70;0.70;;;;;;;;;;5012195;28;20184;-88
2024/01/26 00:12:30;;;;;;;0.60;0.60;;;;;;;;;;5013405;28;20223;-87
2024/01/26 00:14:56;;;;;;;0.63;0.63;;;;;;;;;;5012169;28;20177;-86
2024/01/26 00:17:22;;;;;;;0.70;0.70;;;;;;;;;;5008478;28;20243;-87
2024/01/26 00:19:48;;;;;;;0.60;0.60;;;;;;;;;;5013333;28;20642;-86
2024/01/26 00:22:14;;;;;;;0.60;0.60;;;;;;;;;;5005453;28;20216;-87
2024/01/26 00:24:40;;;;;;;0.70;0.70;;;;;;;;;;4993610;28;20693;-87
2024/01/26 00:27:06;;;;;;;0.60;0.60;;;;;;;;;;4992412;28;20220;-87
2024/01/26 00:29:33;;;;;;;0.63;0.63;;;;;;;;;;4993765;28;20183;-87
2024/01/26 00:31:59;;;;;;;0.50;0.50;;;;;;;;;;4993655;28;20818;-86
2024/01/26 00:34:25;;;;;;;0.60;0.60;;;;;;;;;;4993665;28;20212;-88
2024/01/26 00:36:51;;;;;;;0.63;0.63;;;;;;;;;;5004092;28;20196;-87
2024/01/26 00:39:17;;;;;;;0.60;0.60;;;;;;;;;;5012921;28;20236;-87
2024/01/26 00:41:43;;;;;;;0.60;0.60;;;;;;;;;;5014629;28;20177;-86
2024/01/26 00:44:09;;;;;;;0.70;0.70;;;;;;;;;;5013043;28;20195;-84
2024/01/26 00:46:38;;;;;;;0.60;0.60;;;;;;;;;;5013581;28;20576;-86
2024/01/26 00:49:04;;;;;;;0.60;0.60;;;;;;;;;;5013424;28;20392;-86
2024/01/26 00:51:32;;;;;;;0.53;0.53;;;;;;;;;;5013638;28;20212;-88
2024/01/26 00:53:58;;;;;;;0.70;0.70;;;;;;;;;;5013832;28;20586;-86
2024/01/26 00:56:23;;;;;;;0.60;0.60;;;;;;;;;;5013574;28;20188;-85
2024/01/26 00:58:50;;;;;;;0.60;0.60;;;;;;;;;;5013725;28;20187;-86
2024/01/26 01:01:16;;;;;;;0.60;0.60;;;;;;;;;;5011558;28;20560;-87
2024/01/26 01:03:42;;;;;;;0.60;0.60;;;;;;;;;;5013535;28;20287;-86
2024/01/26 01:06:08;;;;;;;0.60;0.60;;;;;;;;;;5013253;28;20291;-86
2024/01/26 01:08:34;;;;;;;0.60;0.60;;;;;;;;;;5013548;28;20200;-86
2024/01/26 01:11:01;;;;;;;0.70;0.70;;;;;;;;;;5014131;28;20709;-86
2024/01/26 01:13:28;;;;;;;0.80;0.80;;;;;;;;;;5013665;28;20176;-86
2024/01/26 01:15:54;;;;;;;0.60;0.60;;;;;;;;;;5013375;28;20231;-86
2024/01/26 01:18:20;;;;;;;0.60;0.60;;;;;;;;;;5013187;28;20188;-86
2024/01/26 01:20:46;;;;;;;0.70;0.70;;;;;;;;;;5013709;28;20205;-86
2024/01/26 01:23:15;;;;;;;0.60;0.60;;;;;;;;;;5011397;28;20192;-85
2024/01/26 01:25:42;;;;;;;0.70;0.70;;;;;;;;;;5014665;28;20200;-85
2024/01/26 01:28:09;;;;;;;0.60;0.60;;;;;;;;;;5054655;28;20216;-86
2024/01/26 01:30:35;;;;;;;0.60;0.60;;;;;;;;;;5055732;28;20172;-84
2024/01/26 01:33:01;;;;;;;0.60;0.60;;;;;;;;;;5054918;28;20228;-85
2024/01/26 01:35:27;;;;;;;0.50;0.50;;;;;;;;;;5055335;28;20236;-84
2024/01/26 01:37:52;;;;;;;0.60;0.60;;;;;;;;;;5055124;28;20207;-87
2024/01/26 01:40:18;;;;;;;0.60;0.60;;;;;;;;;;5039053;28;20691;-85
2024/01/26 01:42:46;;;;;;;0.60;0.60;;;;;;;;;;5037899;28;20581;-86
2024/01/26 01:45:13;;;;;;;0.60;0.60;;;;;;;;;;5037066;28;20175;-85
2024/01/26 01:47:41;;;;;;;0.63;0.63;;;;;;;;;;5038672;28;20234;-86
2024/01/26 01:50:08;;;;;;;0.60;0.60;;;;;;;;;;5039643;28;20179;-87
2024/01/26 01:52:35;;;;;;;0.67;0.67;;;;;;;;;;5047636;28;20212;-83
2024/01/26 01:55:01;;;;;;;0.60;0.60;;;;;;;;;;5060325;28;20172;-84
2024/01/26 01:57:27;;;;;;;0.60;0.60;;;;;;;;;;5058889;28;20192;-83
2024/01/26 01:59:53;;;;;;;0.60;0.60;;;;;;;;;;5055658;28;20176;-84
2024/01/26 02:02:23;;;;;;;0.60;0.60;;;;;;;;;;5059762;28;20168;-85
2024/01/26 02:04:50;;;;;;;0.60;0.60;;;;;;;;;;5059637;28;20251;-84
2024/01/26 02:07:15;;;;;;;0.63;0.63;;;;;;;;;;5058761;28;20210;-83
2024/01/26 02:09:42;;;;;;;0.60;0.60;;;;;;;;;;5059321;28;20164;-83
2024/01/26 02:12:08;;;;;;;0.60;0.60;;;;;;;;;;5059423;28;20204;-84
2024/01/26 02:14:34;;;;;;;0.53;0.53;;;;;;;;;;5059069;28;20191;-85
2024/01/26 02:17:00;;;;;;;0.50;0.50;;;;;;;;;;5058463;28;20180;-83
2024/01/26 02:19:28;;;;;;;0.50;0.50;;;;;;;;;;5059727;28;20195;-83
2024/01/26 02:21:54;;;;;;;0.60;0.60;;;;;;;;;;5058992;28;20170;-84
2024/01/26 02:24:21;;;;;;;0.60;0.60;;;;;;;;;;5059453;28;20186;-84
2024/01/26 02:26:47;;;;;;;0.60;0.60;;;;;;;;;;5058590;28;20184;-85
2024/01/26 02:29:14;;;;;;;0.60;0.60;;;;;;;;;;5059399;28;20172;-84
2024/01/26 02:31:40;;;;;;;0.70;0.70;;;;;;;;;;5058894;28;20214;-83
2024/01/26 02:34:12;;;;;;;0.50;0.50;;;;;;;;;;5058852;28;20186;-85
2024/01/26 02:36:38;;;;;;;0.60;0.60;;;;;;;;;;5058767;28;20172;-83
2024/01/26 02:39:08;;;;;;;0.60;0.60;;;;;;;;;;5059603;28;20198;-87
2024/01/26 02:41:35;;;;;;;0.50;0.50;;;;;;;;;;5048601;28;20184;-84
2024/01/26 02:44:01;;;;;;;0.53;0.53;;;;;;;;;;5059682;28;20196;-84
2024/01/26 02:46:27;;;;;;;0.80;0.80;;;;;;;;;;5058219;28;20275;-83
2024/01/26 02:48:53;;;;;;;0.60;0.60;;;;;;;;;;5057890;28;20255;-84
2024/01/26 02:51:19;;;;;;;0.60;0.60;;;;;;;;;;5056857;28;20188;-87
2024/01/26 02:53:45;;;;;;;0.60;0.60;;;;;;;;;;5036702;28;20200;-86
2024/01/26 02:56:11;;;;;;;0.50;0.50;;;;;;;;;;5035356;28;20238;-87
2024/01/26 02:58:38;;;;;;;0.60;0.60;;;;;;;;;;5035760;28;20186;-86
2024/01/26 03:01:04;;;;;;;0.50;0.50;;;;;;;;;;5035532;28;20282;-86
2024/01/26 03:03:30;;;;;;;0.70;0.70;;;;;;;;;;5035548;28;20202;-87
2024/01/26 03:05:56;;;;;;;0.50;0.50;;;;;;;;;;5035157;28;20176;-86
2024/01/26 03:08:22;;;;;;;0.70;0.70;;;;;;;;;;5033700;28;20325;-87
2024/01/26 03:10:50;;;;;;;0.70;0.70;;;;;;;;;;5034503;28;20175;-86
2024/01/26 03:13:17;;;;;;;0.60;0.60;;;;;;;;;;5035082;28;20212;-88
2024/01/26 03:15:49;;;;;;;0.60;0.60;;;;;;;;;;5034750;28;20207;-86
2024/01/26 03:18:15;;;;;;;0.60;0.60;;;;;;;;;;5034196;28;20188;-85
2024/01/26 03:20:41;;;;;;;0.50;0.50;;;;;;;;;;5053024;28;20168;-85
2024/01/26 03:23:07;;;;;;;0.60;0.60;;;;;;;;;;5044070;28;20210;-86
2024/01/26 03:25:33;;;;;;;0.60;0.60;;;;;;;;;;5036611;28;20225;-86
2024/01/26 03:27:59;;;;;;;0.60;0.60;;;;;;;;;;5037041;28;20637;-87
2024/01/26 03:30:25;;;;;;;0.50;0.50;;;;;;;;;;5036409;28;20230;-87
2024/01/26 03:32:51;;;;;;;0.60;0.60;;;;;;;;;;5037254;28;20302;-86
2024/01/26 03:35:18;;;;;;;0.70;0.70;;;;;;;;;;5036899;28;20196;-86
2024/01/26 03:37:44;;;;;;;0.60;0.60;;;;;;;;;;5036080;28;20199;-87
2024/01/26 03:40:10;;;;;;;0.50;0.50;;;;;;;;;;5036470;28;20187;-86
2024/01/26 03:42:37;;;;;;;0.60;0.60;;;;;;;;;;5035999;28;20259;-87
2024/01/26 03:45:04;;;;;;;0.60;0.60;;;;;;;;;;5035413;28;20191;-87
2024/01/26 03:47:30;;;;;;;0.70;0.70;;;;;;;;;;5034137;28;20253;-86
2024/01/26 03:49:55;;;;;;;0.60;0.60;;;;;;;;;;5035563;28;20266;-88
2024/01/26 03:52:23;;;;;;;0.70;0.70;;;;;;;;;;5034946;28;20203;-86
2024/01/26 03:54:49;;;;;;;0.60;0.60;;;;;;;;;;5033947;28;20265;-87
2024/01/26 03:57:15;;;;;;;0.57;0.57;;;;;;;;;;5034871;28;20246;-84
2024/01/26 03:59:41;;;;;;;0.60;0.60;;;;;;;;;;5035178;28;20168;-87
2024/01/26 04:02:07;;;;;;;0.60;0.60;;;;;;;;;;5034954;28;20191;-87
2024/01/26 04:04:33;;;;;;;0.57;0.57;;;;;;;;;;5035325;28;20720;-88
2024/01/26 04:06:59;;;;;;;0.60;0.60;;;;;;;;;;5045830;28;20208;-83
2024/01/26 04:09:25;;;;;;;0.60;0.60;;;;;;;;;;5057301;28;20171;-85
2024/01/26 04:11:51;;;;;;;0.67;0.67;;;;;;;;;;5043687;28;20210;-85
2024/01/26 04:14:19;;;;;;;0.70;0.70;;;;;;;;;;5035558;28;20271;-87
2024/01/26 04:16:45;;;;;;;0.60;0.60;;;;;;;;;;5034517;28;20414;-87
2024/01/26 04:19:11;;;;;;;0.60;0.60;;;;;;;;;;5035756;28;20260;-88
2024/01/26 04:21:37;;;;;;;0.60;0.60;;;;;;;;;;5034557;28;20203;-87
2024/01/26 04:24:03;;;;;;;0.60;0.60;;;;;;;;;;5034219;28;20203;-89
2024/01/26 04:26:29;;;;;;;0.60;0.60;;;;;;;;;;5041529;28;20179;-86
2024/01/26 04:28:55;;;;;;;0.60;0.60;;;;;;;;;;5057515;28;20180;-84
2024/01/26 04:31:23;;;;;;;0.60;0.60;;;;;;;;;;5039381;28;20560;-87
2024/01/26 04:33:49;;;;;;;0.70;0.70;;;;;;;;;;5033508;28;20225;-86
2024/01/26 04:36:16;;;;;;;0.70;0.70;;;;;;;;;;5033009;28;20196;-88
2024/01/26 04:38:42;;;;;;;0.60;0.60;;;;;;;;;;5032468;28;20566;-87
2024/01/26 04:41:09;;;;;;;0.70;0.70;;;;;;;;;;5032922;28;20199;-86
2024/01/26 04:43:35;;;;;;;0.50;0.50;;;;;;;;;;5032993;28;20279;-89
2024/01/26 04:46:01;;;;;;;0.67;0.67;;;;;;;;;;5032159;28;20212;-87
2024/01/26 04:48:28;;;;;;;0.60;0.60;;;;;;;;;;5032222;28;20175;-85
2024/01/26 04:50:55;;;;;;;0.70;0.70;;;;;;;;;;5031043;28;20676;-85
2024/01/26 04:53:21;;;;;;;0.60;0.60;;;;;;;;;;5032561;28;20208;-89
2024/01/26 04:55:47;;;;;;;0.70;0.70;;;;;;;;;;5032960;28;20180;-88
2024/01/26 04:58:13;;;;;;;0.60;0.60;;;;;;;;;;5032254;28;20500;-89
2024/01/26 05:00:39;;;;;;;0.60;0.60;;;;;;;;;;5032345;28;20184;-88
2024/01/26 05:03:05;;;;;;;0.60;0.60;;;;;;;;;;5031046;28;20560;-87
2024/01/26 05:05:31;;;;;;;0.60;0.60;;;;;;;;;;5032308;28;20211;-87
2024/01/26 05:07:58;;;;;;;0.60;0.60;;;;;;;;;;5032382;28;20188;-88
2024/01/26 05:10:24;;;;;;;0.70;0.70;;;;;;;;;;5032311;28;20211;-90
2024/01/26 05:12:50;;;;;;;0.70;0.70;;;;;;;;;;5034060;28;20250;-89
2024/01/26 05:15:16;;;;;;;0.60;0.60;;;;;;;;;;5036576;28;20206;-91
2024/01/26 05:17:44;;;;;;;0.70;0.70;;;;;;;;;;5036847;28;20200;-89
2024/01/26 05:20:10;;;;;;;0.70;0.70;;;;;;;;;;5034883;28;20570;-89
2024/01/26 05:22:36;;;;;;;0.60;0.60;;;;;;;;;;5036829;28;20171;-89
2024/01/26 05:25:02;;;;;;;0.70;0.70;;;;;;;;;;5035444;28;20196;-89
2024/01/26 05:27:29;;;;;;;0.60;0.60;;;;;;;;;;5038648;28;20802;-88
2024/01/26 05:29:55;;;;;;;0.60;0.60;;;;;;;;;;5042196;28;20187;-88
2024/01/26 05:32:22;;;;;;;0.70;0.70;;;;;;;;;;5048316;28;20238;-89
2024/01/26 05:34:48;;;;;;;0.60;0.60;;;;;;;;;;5035899;28;20199;-87
2024/01/26 05:37:14;;;;;;;0.70;0.70;;;;;;;;;;5037530;28;20572;-88
2024/01/26 05:39:40;;;;;;;0.70;0.70;;;;;;;;;;5036706;28;20215;-88
2024/01/26 05:42:06;;;;;;;0.60;0.60;;;;;;;;;;5037128;28;20214;-88
2024/01/26 05:44:32;;;;;;;0.67;0.67;;;;;;;;;;5056512;28;20191;-91
2024/01/26 05:46:58;;;;;;;0.70;0.70;;;;;;;;;;5060152;28;20191;-86
2024/01/26 05:49:25;;;;;;;0.50;0.50;;;;;;;;;;5060287;28;20176;-85
2024/01/26 05:51:51;;;;;;;0.53;0.53;;;;;;;;;;5060185;28;20210;-86
2024/01/26 05:54:17;;;;;;;0.60;0.60;;;;;;;;;;5059982;28;20168;-86
2024/01/26 05:56:43;;;;;;;0.60;0.60;;;;;;;;;;5059188;28;20194;-85
2024/01/26 05:59:09;;;;;;;0.70;0.70;;;;;;;;;;5038017;28;20657;-85
2024/01/26 06:01:35;;;;;;;0.60;0.60;;;;;;;;;;5034988;28;20180;-90
2024/01/26 06:04:01;;;;;;;0.60;0.60;;;;;;;;;;5037946;28;20180;-90
2024/01/26 06:06:27;;;;;;;0.70;0.70;;;;;;;;;;5036310;28;20282;-88
2024/01/26 06:08:53;;;;;;;0.60;0.60;;;;;;;;;;5036816;28;20186;-87
2024/01/26 06:11:21;;;;;;;0.60;0.60;;;;;;;;;;5036507;28;20172;-88
2024/01/26 06:13:47;;;;;;;0.70;0.70;;;;;;;;;;5036516;28;20171;-87
2024/01/26 06:16:14;;;;;;;0.60;0.60;;;;;;;;;;5035222;28;20188;-86
2024/01/26 06:18:40;;;;;;;0.60;0.60;;;;;;;;;;5035424;28;20218;-87
2024/01/26 06:21:06;;;;;;;0.60;0.60;;;;;;;;;;5035700;28;20211;-86
2024/01/26 06:23:32;;;;;;;0.60;0.60;;;;;;;;;;5039045;28;20176;-87
2024/01/26 06:25:58;;;;;;;0.60;0.60;;;;;;;;;;5045978;28;20263;-90
2024/01/26 06:28:24;;;;;;;0.70;0.70;;;;;;;;;;5048880;28;20176;-86
2024/01/26 06:30:50;;;;;;;0.50;0.50;;;;;;;;;;5054290;28;20183;-84
2024/01/26 06:33:16;;;;;;;0.60;0.60;;;;;;;;;;5044491;28;20243;-86
2024/01/26 06:35:42;;;;;;;0.50;0.50;;;;;;;;;;5035862;28;20184;-86
2024/01/26 06:38:08;;;;;;;0.70;0.70;;;;;;;;;;5034829;28;20706;-86
2024/01/26 06:40:34;;;;;;;0.60;0.60;;;;;;;;;;5035685;28;20180;-87
2024/01/26 06:43:06;;;;;;;0.70;0.70;;;;;;;;;;5034507;28;20215;-88
2024/01/26 06:45:33;;;;;;;0.67;0.67;;;;;;;;;;5035500;28;20259;-88
2024/01/26 06:47:59;;;;;;;0.63;0.63;;;;;;;;;;5035875;28;20371;-86
2024/01/26 06:50:25;;;;;;;0.63;0.63;;;;;;;;;;5038838;28;20227;-87
2024/01/26 06:52:51;;;;;;;0.70;0.70;;;;;;;;;;5037736;28;20693;-88
2024/01/26 06:55:17;;;;;;;0.50;0.50;;;;;;;;;;5037212;28;20294;-86
2024/01/26 06:57:44;;;;;;;0.70;0.70;;;;;;;;;;5036184;28;20204;-88
2024/01/26 07:00:10;;;;;;;0.53;0.53;;;;;;;;;;5036219;28;20263;-87
2024/01/26 07:02:37;;;;;;;0.60;0.60;;;;;;;;;;5036325;28;20176;-87
2024/01/26 07:05:03;;;;;;;0.60;0.60;;;;;;;;;;5035811;28;20167;-89
2024/01/26 07:07:29;;;;;;;0.60;0.60;;;;;;;;;;5042416;28;20596;-87
2024/01/26 07:09:55;;;;;;;0.60;0.60;;;;;;;;;;5034821;28;20179;-86
2024/01/26 07:12:21;;;;;;;0.70;0.70;;;;;;;;;;5048776;28;20265;-83
2024/01/26 07:14:46;;;;;;;0.50;0.50;;;;;;;;;;5058368;28;20239;-85
2024/01/26 07:17:13;;;;;;;0.60;0.60;;;;;;;;;;5056504;28;20310;-84
2024/01/26 07:19:39;;;;;;;0.60;0.60;;;;;;;;;;5035865;28;20202;-88
2024/01/26 07:22:05;;;;;;;0.50;0.50;;;;;;;;;;5035428;28;20244;-91
2024/01/26 07:24:31;;;;;;;0.70;0.70;;;;;;;;;;5035221;28;20196;-88
2024/01/26 07:26:57;;;;;;;0.67;0.67;;;;;;;;;;5033387;28;20283;-88
2024/01/26 07:29:23;;;;;;;0.70;0.70;;;;;;;;;;5036587;28;20215;-87
2024/01/26 07:31:50;;;;;;;0.53;0.53;;;;;;;;;;5008857;28;20212;-88
2024/01/26 07:34:16;;;;;;;0.60;0.60;;;;;;;;;;5009311;28;20177;-90
2024/01/26 07:36:42;;;;;;;0.70;0.70;;;;;;;;;;5005964;28;20193;-91
2024/01/26 07:39:09;;;;;;;0.70;0.70;;;;;;;;;;5011684;28;20702;-87
2024/01/26 07:41:36;;;;;;;0.60;0.60;;;;;;;;;;5004875;28;20189;-87
2024/01/26 07:44:02;;;;;;;0.60;0.60;;;;;;;;;;5011412;28;20184;-90
2024/01/26 07:46:28;;;;;;;0.60;0.60;;;;;;;;;;5020299;28;20267;-87
2024/01/26 07:48:54;;;;;;;0.60;0.60;;;;;;;;;;5012851;28;20173;-88
2024/01/26 07:51:20;;;;;;;0.60;0.60;;;;;;;;;;5021947;28;20177;-92
2024/01/26 07:53:49;;;;;;;0.50;0.50;;;;;;;;;;5013076;28;20259;-85
2024/01/26 07:56:15;;;;;;;0.60;0.60;;;;;;;;;;5018018;28;20200;-89
2024/01/26 07:58:41;;;;;;;0.60;0.60;;;;;;;;;;5015360;28;20212;-88
2024/01/26 08:01:07;;;;;;;0.60;0.60;;;;;;;;;;5020007;28;20208;-89
2024/01/26 08:03:33;;;;;;;0.60;0.60;;;;;;;;;;5018732;28;20176;-89
2024/01/26 08:05:59;;;;;;;0.50;0.50;;;;;;;;;;5030753;28;20187;-87
2024/01/26 08:08:25;;;;;;;0.57;0.57;;;;;;;;;;5026529;28;20177;-88
2024/01/26 08:10:51;;;;;;;0.50;0.50;;;;;;;;;;5029028;28;20196;-89
2024/01/26 08:13:17;;;;;;;0.50;0.50;;;;;;;;;;5019412;28;20216;-89
2024/01/26 08:15:46;;;;;;;0.50;0.50;;;;;;;;;;5012848;28;20220;-88
2024/01/26 08:18:12;;;;;;;0.60;0.60;;;;;;;;;;5020503;28;20665;-88
2024/01/26 08:20:38;;;;;;;0.50;0.50;;;;;;;;;;5016007;28;20222;-89
2024/01/26 08:23:04;;;;;;;0.50;0.50;;;;;;;;;;5015718;28;20180;-90
2024/01/26 08:25:30;;;;;;;0.60;0.60;;;;;;;;;;5015015;28;20820;-88
2024/01/26 08:27:56;;;;;;;0.50;0.50;;;;;;;;;;5015159;28;20200;-90
2024/01/26 08:30:23;;;;;;;0.50;0.50;;;;;;;;;;5014176;28;20173;-88
2024/01/26 08:32:49;;;;;;;0.50;0.50;;;;;;;;;;5014039;28;20200;-88
2024/01/26 08:35:15;;;;;;;0.50;0.50;;;;;;;;;;5014078;28;20177;-89
2024/01/26 08:37:41;;;;;;;0.40;0.40;;;;;;;;;;5013376;28;20253;-89
2024/01/26 08:40:09;;;;;;;0.50;0.50;;;;;;;;;;5016387;28;20192;-88
2024/01/26 08:42:35;;;;;;;0.60;0.60;;;;;;;;;;5015484;28;20562;-88
2024/01/26 08:45:01;;;;;;;0.40;0.40;;;;;;;;;;5017773;28;20553;-88
2024/01/26 08:47:27;;;;;;;0.47;0.47;;;;;;;;;;5013692;28;20196;-87
2024/01/26 08:49:53;;;;;;;0.50;0.50;;;;;;;;;;5013363;28;20187;-88
2024/01/26 08:52:19;;;;;;;0.60;0.60;;;;;;;;;;5016299;28;20208;-87
2024/01/26 08:54:45;;;;;;;0.50;0.50;;;;;;;;;;5014965;28;20179;-89
2024/01/26 08:57:12;;;;;;;0.60;0.60;;;;;;;;;;5014708;28;20211;-86
2024/01/26 08:59:40;;;;;;;0.57;0.57;;;;;;;;;;5014211;28;20188;-86
2024/01/26 09:02:07;;;;;;;0.57;0.57;;;;;;;;;;5012817;28;20235;-86
2024/01/26 09:04:33;;;;;;;0.70;0.70;;;;;;;;;;5012274;28;20213;-88
2024/01/26 09:06:59;;;;;;;0.40;0.40;;;;;;;;;;5012692;28;20204;-86
2024/01/26 09:09:25;;;;;;;0.53;0.53;;;;;;;;;;5010781;28;20624;-87
2024/01/26 09:11:51;;;;;;;0.47;0.47;;;;;;;;;;5013811;28;20250;-89
2024/01/26 09:14:18;;;;;;;0.50;0.50;;;;;;;;;;5016202;28;20181;-90
2024/01/26 09:16:44;;;;;;;0.60;0.60;;;;;;;;;;5015675;28;20615;-88
2024/01/26 09:19:10;;;;;;;0.50;0.50;;;;;;;;;;5033662;28;20168;-87
2024/01/26 09:21:36;;;;;;;0.50;0.50;;;;;;;;;;5034285;28;20208;-86
2024/01/26 09:24:02;;;;;;;0.53;0.53;;;;;;;;;;5034873;28;20623;-87
2024/01/26 09:26:28;;;;;;;0.50;0.50;;;;;;;;;;5031206;28;20235;-88
2024/01/26 09:28:54;;;;;;;0.50;0.50;;;;;;;;;;5028853;28;20208;-89
2024/01/26 09:31:20;;;;;;;0.60;0.60;;;;;;;;;;5014202;28;20655;-86
2024/01/26 09:33:46;;;;;;;0.50;0.50;;;;;;;;;;5013607;28;20177;-89
2024/01/26 09:36:12;;;;;;;0.50;0.50;;;;;;;;;;5013304;28;20227;-88
2024/01/26 09:38:38;;;;;;;0.57;0.57;;;;;;;;;;5011930;28;20231;-87
2024/01/26 09:41:04;;;;;;;0.53;0.53;;;;;;;;;;5013403;28;20248;-89
2024/01/26 09:43:30;;;;;;;0.57;0.57;;;;;;;;;;5013508;28;20208;-89
2024/01/26 09:45:56;;;;;;;0.40;0.40;;;;;;;;;;5011636;28;20180;-87
2024/01/26 09:48:22;;;;;;;0.47;0.47;;;;;;;;;;5003444;28;20185;-85
2024/01/26 09:50:51;;;;;;;0.50;0.50;;;;;;;;;;5011230;28;20173;-89
2024/01/26 09:53:18;;;;;;;0.50;0.50;;;;;;;;;;5010852;28;20236;-85
2024/01/26 09:55:45;;;;;;;0.50;0.50;;;;;;;;;;5011717;28;20262;-87
2024/01/26 09:58:12;;;;;;;0.40;0.40;;;;;;;;;;5013427;28;20196;-83
2024/01/26 10:00:39;;;;;;;0.50;0.50;;;;;;;;;;5020878;28;20183;-86
2024/01/26 10:03:05;;;;;;;0.47;0.47;;;;;;;;;;5021747;28;20176;-87
2024/01/26 10:05:32;;;;;;;0.60;0.60;;;;;;;;;;5032871;28;20169;-87
2024/01/26 10:07:58;;;;;;;0.50;0.50;;;;;;;;;;5038914;28;20192;-91
2024/01/26 10:10:24;;;;;;;0.50;0.50;;;;;;;;;;5019512;28;20192;-89
2024/01/26 10:12:53;;;;;;;0.43;0.43;;;;;;;;;;5017792;28;20226;-89
2024/01/26 10:15:19;;;;;;;0.40;0.40;;;;;;;;;;5025961;28;20234;-87
2024/01/26 10:17:45;;;;;;;0.57;0.57;;;;;;;;;;5020493;28;20185;-89
2024/01/26 10:20:18;;;;;;;0.40;0.40;;;;;;;;;;5021002;28;20161;-90
2024/01/26 10:22:45;;;;;;;0.53;0.53;;;;;;;;;;5020877;28;20169;-89
2024/01/26 10:25:11;;;;;;;0.50;0.50;;;;;;;;;;5018770;28;20248;-89
2024/01/26 10:27:37;;;;;;;0.60;0.60;;;;;;;;;;5019454;28;20216;-94
2024/01/26 10:30:04;;;;;;;0.40;0.40;;;;;;;;;;5001034;28;20200;-88
2024/01/26 10:32:31;;;;;;;0.60;0.60;;;;;;;;;;4996950;28;20232;-88
2024/01/26 10:35:01;;;;;;;0.50;0.50;;;;;;;;;;5010443;28;20179;-88
2024/01/26 10:37:28;;;;;;;0.50;0.50;;;;;;;;;;4997000;28;20197;-87
2024/01/26 10:39:55;;;;;;;0.50;0.50;;;;;;;;;;5000404;28;20821;-88
2024/01/26 10:42:21;;;;;;;0.50;0.50;;;;;;;;;;5015843;28;20179;-86
2024/01/26 10:44:51;;;;;;;0.50;0.50;;;;;;;;;;5016643;28;20600;-90
2024/01/26 10:47:18;;;;;;;0.50;0.50;;;;;;;;;;5014804;28;20193;-88
2024/01/26 10:49:48;;;;;;;0.50;0.50;;;;;;;;;;5017789;28;20253;-88
2024/01/26 10:52:17;;;;;;;0.50;0.50;;;;;;;;;;5018332;28;20231;-89
2024/01/26 10:54:44;;;;;;;0.53;0.53;;;;;;;;;;5016649;28;20215;-87
2024/01/26 10:57:10;;;;;;;0.40;0.40;;;;;;;;;;5015606;28;20192;-88
2024/01/26 10:59:40;;;;;;;0.50;0.50;;;;;;;;;;5016170;28;20180;-85
2024/01/26 11:02:06;;;;;;;0.50;0.50;;;;;;;;;;5016198;28;20686;-86
2024/01/26 11:04:32;;;;;;;0.50;0.50;;;;;;;;;;5016688;28;20230;-87
2024/01/26 11:06:59;;;;;;;0.40;0.40;;;;;;;;;;5014511;28;20626;-87
2024/01/26 11:09:29;;;;;;;0.60;0.60;;;;;;;;;;5014935;28;20176;-88
2024/01/26 11:11:57;;;;;;;0.47;0.47;;;;;;;;;;5016273;28;20208;-87
2024/01/26 11:14:27;;;;;;;0.60;0.60;;;;;;;;;;5018592;28;20204;-88
2024/01/26 11:16:53;;;;;;;0.60;0.60;;;;;;;;;;5029506;28;20268;-85
2024/01/26 11:19:22;;;;;;;0.53;0.53;;;;;;;;;;5033999;28;20180;-87
2024/01/26 11:21:48;;;;;;;0.50;0.50;;;;;;;;;;5023057;28;20199;-84
2024/01/26 11:24:19;;;;;;;0.50;0.50;;;;;;;;;;5019398;28;20654;-85
2024/01/26 11:27:07;;;;;;;0.50;0.50;;;;;;;;;;5010786;28;20212;-82
2024/01/26 11:29:34;;;;;;;0.67;0.67;;;;;;;;;;5014913;28;20188;-83
2024/01/26 11:32:00;;;;;;;0.50;0.50;;;;;;;;;;5015625;28;20287;-84
2024/01/26 11:34:26;;;;;;;0.50;0.50;;;;;;;;;;5015160;28;20761;-83
2024/01/26 11:37:14;;;;;;;0.50;0.50;;;;;;;;;;5022247;28;20244;-83
2024/01/26 11:39:41;;;;;;;0.60;0.60;;;;;;;;;;5026821;28;20176;-85
2024/01/26 11:42:08;;;;;;;0.60;0.60;;;;;;;;;;5024740;28;20252;-87
2024/01/26 11:44:37;;;;;;;0.60;0.60;;;;;;;;;;5024123;28;20176;-86
2024/01/26 11:47:03;;;;;;;0.60;0.60;;;;;;;;;;5024177;28;20268;-85
2024/01/26 11:49:29;;;;;;;0.70;0.70;;;;;;;;;;5024931;28;20180;-84
2024/01/26 11:51:56;;;;;;;0.50;0.50;;;;;;;;;;5025051;28;20311;-86
2024/01/26 11:54:22;;;;;;;0.57;0.57;;;;;;;;;;5023561;28;20185;-84
2024/01/26 11:56:48;;;;;;;0.60;0.60;;;;;;;;;;5018889;28;20219;-86
2024/01/26 11:59:14;;;;;;;0.50;0.50;;;;;;;;;;5017675;28;20176;-88
2024/01/26 12:01:40;;;;;;;0.60;0.60;;;;;;;;;;5017827;28;20195;-87
2024/01/26 12:04:05;;;;;;;0.40;0.40;;;;;;;;;;5025602;28;20226;-86
2024/01/26 12:06:32;;;;;;;0.50;0.50;;;;;;;;;;5035504;28;20208;-84
2024/01/26 12:08:59;;;;;;;0.40;0.40;;;;;;;;;;5024903;28;20230;-86
2024/01/26 12:11:25;;;;;;;0.50;0.50;;;;;;;;;;5016232;28;20237;-84
2024/01/26 12:13:51;;;;;;;0.57;0.57;;;;;;;;;;5016186;28;20322;-85
2024/01/26 12:16:21;;;;;;;0.50;0.50;;;;;;;;;;5018081;28;20324;-85
2024/01/26 12:18:47;;;;;;;0.50;0.50;;;;;;;;;;5016906;28;20164;-86
2024/01/26 12:21:14;;;;;;;0.53;0.53;;;;;;;;;;5013989;28;20264;-86
2024/01/26 12:23:40;;;;;;;0.47;0.47;;;;;;;;;;5014005;28;20180;-86
2024/01/26 12:26:11;;;;;;;0.40;0.40;;;;;;;;;;5014100;28;20200;-86
2024/01/26 12:28:37;;;;;;;0.60;0.60;;;;;;;;;;5012403;28;20185;-84
2024/01/26 12:31:04;;;;;;;0.50;0.50;;;;;;;;;;5014686;28;20173;-86
2024/01/26 12:33:31;;;;;;;0.50;0.50;;;;;;;;;;5015462;28;20216;-84
2024/01/26 12:35:59;;;;;;;0.50;0.50;;;;;;;;;;5014778;28;20181;-85
2024/01/26 12:38:25;;;;;;;0.60;0.60;;;;;;;;;;5013180;28;20181;-85
2024/01/26 12:40:51;;;;;;;0.50;0.50;;;;;;;;;;5015295;28;20177;-85
2024/01/26 12:43:17;;;;;;;0.60;0.60;;;;;;;;;;5016615;28;20181;-85
2024/01/26 12:45:43;;;;;;;0.53;0.53;;;;;;;;;;5014209;28;20263;-85
2024/01/26 12:48:09;;;;;;;0.60;0.60;;;;;;;;;;5014463;28;20228;-84
2024/01/26 12:50:35;;;;;;;0.50;0.50;;;;;;;;;;5013626;28;20240;-86
2024/01/26 12:53:01;;;;;;;0.43;0.43;;;;;;;;;;5014552;28;20686;-86
2024/01/26 12:55:27;;;;;;;0.50;0.50;;;;;;;;;;5034988;28;20182;-86
2024/01/26 12:57:55;;;;;;;0.50;0.50;;;;;;;;;;5026237;28;20216;-86
2024/01/26 13:00:21;;;;;;;0.50;0.50;;;;;;;;;;5016549;28;20211;-84
2024/01/26 13:02:47;;;;;;;0.50;0.50;;;;;;;;;;5016081;28;20184;-85
2024/01/26 13:05:13;;;;;;;0.53;0.53;;;;;;;;;;5017816;28;20168;-86
2024/01/26 13:10:11;;;;;;;0.50;0.50;;;;;;;;;;5016220;28;20220;-90
2024/01/26 13:12:37;;;;;;;0.50;0.50;;;;;;;;;;5002219;28;20201;-86
2024/01/26 13:15:04;;;;;;;0.60;0.60;;;;;;;;;;4994630;28;20193;-88
2024/01/26 13:17:30;;;;;;;0.50;0.50;;;;;;;;;;4994406;28;20228;-85
2024/01/26 13:19:56;;;;;;;0.50;0.50;;;;;;;;;;4993495;28;20207;-87
2024/01/26 13:22:22;;;;;;;0.47;0.47;;;;;;;;;;4996592;28;20184;-85
2024/01/26 13:24:48;;;;;;;0.50;0.50;;;;;;;;;;4998556;28;20614;-85
2024/01/26 13:27:15;;;;;;;0.50;0.50;;;;;;;;;;4996310;28;20371;-85
2024/01/26 13:29:41;;;;;;;0.60;0.60;;;;;;;;;;5004365;28;20195;-87
2024/01/26 13:32:07;;;;;;;0.50;0.50;;;;;;;;;;5016592;28;20237;-89
2024/01/26 13:34:34;;;;;;;0.53;0.53;;;;;;;;;;5020352;28;20229;-90
2024/01/26 13:37:00;;;;;;;0.60;0.60;;;;;;;;;;5020362;28;20189;-88
2024/01/26 13:39:26;;;;;;;0.60;0.60;;;;;;;;;;5019957;28;20253;-91
2024/01/26 13:41:52;;;;;;;0.50;0.50;;;;;;;;;;5008928;28;20181;-87
2024/01/26 13:44:20;;;;;;;0.50;0.50;;;;;;;;;;4998080;28;20240;-86
2024/01/26 13:46:46;;;;;;;0.70;0.70;;;;;;;;;;4996318;28;20314;-88
2024/01/26 13:49:12;;;;;;;0.50;0.50;;;;;;;;;;4999535;28;20646;-87
2024/01/26 13:51:38;;;;;;;0.60;0.60;;;;;;;;;;5000596;28;20174;-85
2024/01/26 13:54:04;;;;;;;0.60;0.60;;;;;;;;;;5000655;28;20200;-86
2024/01/26 13:56:30;;;;;;;0.50;0.50;;;;;;;;;;4982224;28;20277;-88
2024/01/26 13:58:57;;;;;;;0.57;0.57;;;;;;;;;;4996419;28;20193;-89
2024/01/26 14:01:23;;;;;;;0.50;0.50;;;;;;;;;;4984207;28;20606;-88
2024/01/26 14:03:53;;;;;;;0.50;0.50;;;;;;;;;;4979045;28;20177;-90
2024/01/26 14:06:19;;;;;;;0.50;0.50;;;;;;;;;;4989103;28;20221;-86
2024/01/26 14:08:46;;;;;;;0.63;0.63;;;;;;;;;;4991627;28;20193;-88
2024/01/26 14:11:12;;;;;;;0.53;0.53;;;;;;;;;;4997770;28;20178;-87
2024/01/26 14:13:38;;;;;;;0.50;0.50;;;;;;;;;;4998009;28;20276;-84
2024/01/26 14:16:07;;;;;;;0.60;0.60;;;;;;;;;;4998290;28;20189;-87
2024/01/26 14:18:34;;;;;;;0.60;0.60;;;;;;;;;;4997941;28;20179;-86
2024/01/26 14:21:00;;;;;;;0.57;0.57;;;;;;;;;;4994053;28;20245;-87
2024/01/26 14:23:26;;;;;;;0.50;0.50;;;;;;;;;;4995456;28;20304;-90
2024/01/26 14:25:54;;;;;;;0.60;0.60;;;;;;;;;;4997394;28;20185;-88
2024/01/26 14:28:20;;;;;;;0.50;0.50;;;;;;;;;;4997219;28;20192;-89
2024/01/26 14:30:47;;;;;;;0.50;0.50;;;;;;;;;;4995441;28;20177;-87
2024/01/26 14:33:13;;;;;;;0.50;0.50;;;;;;;;;;4980081;28;20828;-86
2024/01/26 14:35:42;;;;;;;0.60;0.60;;;;;;;;;;4991123;28;20250;-86
2024/01/26 14:38:14;;;;;;;0.40;0.40;;;;;;;;;;4982803;28;20204;-87
2024/01/26 14:40:41;;;;;;;0.60;0.60;;;;;;;;;;4994934;28;20192;-87